Terminal Aerodrome Forecast
Issued by NWS

Home | Current Version | Previous Version | Graphics & Text | Print | Product List | Glossary On
Versions: 1 2 3 4 5 6 7 8 9 10 11 12 13 14 15 16 17
000
FTUS43 KICT 220800 AAA
TAFCNU
TAF AMD
KCNU 220800Z 2208/2306 21017KT P6SM VCTS SCT080CB BKN150
      TEMPO 2208/2211 VRB25G35KT 3SM TSRA BKN070CB
     FM221100 23007KT P6SM VCSH SCT020 OVC060
     FM221400 32009KT P6SM VCSH OVC015=

USA.gov is the U.S. government's official web portal to all federal, state and local government web resources and services.